Map

Track Data

SID SEASON NUMBER BASIN SUBBASIN NAME ISO_TIME NATURE LAT LON WMO_WIND WMO_PRES WMO_AGENCY TRACK_TYPE DIST2LAND LANDFALL IFLAG USA_AGENCY USA_ATCF_ID USA_LAT USA_LON USA_RECORD USA_STATUS USA_WIND USA_PRES USA_SSHS USA_R34_NE USA_R34_SE USA_R34_SW USA_R34_NW USA_R50_NE USA_R50_SE USA_R50_SW USA_R50_NW USA_R64_NE USA_R64_SE USA_R64_SW USA_R64_NW USA_POCI USA_ROCI USA_RMW USA_EYE TOKYO_LAT TOKYO_LON TOKYO_GRADE TOKYO_WIND TOKYO_PRES TOKYO_R50_DIR TOKYO_R50_LONG TOKYO_R50_SHORT TOKYO_R30_DIR TOKYO_R30_LONG TOKYO_R30_SHORT TOKYO_LAND CMA_LAT CMA_LON CMA_CAT CMA_WIND CMA_PRES HKO_LAT HKO_LON HKO_CAT HKO_WIND HKO_PRES NEWDELHI_LAT NEWDELHI_LON NEWDELHI_GRADE NEWDELHI_WIND NEWDELHI_PRES NEWDELHI_CI NEWDELHI_DP NEWDELHI_POCI REUNION_LAT REUNION_LON REUNION_TYPE REUNION_WIND REUNION_PRES REUNION_TNUM REUNION_CI REUNION_RMW REUNION_R34_NE REUNION_R34_SE REUNION_R34_SW REUNION_R34_NW REUNION_R50_NE REUNION_R50_SE REUNION_R50_SW REUNION_R50_NW REUNION_R64_NE REUNION_R64_SE REUNION_R64_SW REUNION_R64_NW BOM_LAT BOM_LON BOM_TYPE BOM_WIND BOM_PRES BOM_TNUM BOM_CI BOM_RMW BOM_R34_NE BOM_R34_SE BOM_R34_SW BOM_R34_NW BOM_R50_NE BOM_R50_SE BOM_R50_SW BOM_R50_NW BOM_R64_NE BOM_R64_SE BOM_R64_SW BOM_R64_NW BOM_ROCI BOM_POCI BOM_EYE BOM_POS_METHOD BOM_PRES_METHOD NADI_LAT NADI_LON NADI_CAT NADI_WIND NADI_PRES WELLINGTON_LAT WELLINGTON_LON WELLINGTON_WIND WELLINGTON_PRES DS824_LAT DS824_LON DS824_STAGE DS824_WIND DS824_PRES TD9636_LAT TD9636_LON TD9636_STAGE TD9636_WIND TD9636_PRES TD9635_LAT TD9635_LON TD9635_WIND TD9635_PRES TD9635_ROCI NEUMANN_LAT NEUMANN_LON NEUMANN_CLASS NEUMANN_WIND NEUMANN_PRES MLC_LAT MLC_LON MLC_CLASS MLC_WIND MLC_PRES USA_GUST BOM_GUST BOM_GUST_PER REUNION_GUST REUNION_GUST_PER USA_SEAHGT USA_SEARAD_NE USA_SEARAD_SE USA_SEARAD_SW USA_SEARAD_NW STORM_SPEED STORM_DIR
1931309N12131 1931 53 WP MM NOT_NAMED 1931-11-05 10:00:00 NR 12.3000 131.200 main 606 574 __________O___ -1 12.3000 131.200 7 9 265
1931309N12131 1931 53 WP MM NOT_NAMED 1931-11-05 12:00:00 NR 12.2742 130.891 main 574 519 __________P___ -1 12.2742 130.891 7 9 265
1931309N12131 1931 53 WP MM NOT_NAMED 1931-11-05 15:00:00 NR 12.2386 130.436 main 519 477 __________P___ -1 12.2386 130.436 7 9 266
1931309N12131 1931 53 WP MM NOT_NAMED 1931-11-05 18:00:00 NR 12.2118 130.007 main 477 435 __________P___ -1 12.2118 130.007 7 8 267
1931309N12131 1931 53 WP MM NOT_NAMED 1931-11-05 21:00:00 NR 12.1997 129.618 main 435 425 __________P___ -1 12.1997 129.618 7 7 269
1931309N12131 1931 53 WP MM NOT_NAMED 1931-11-05 22:00:00 NR 12.2000 129.500 main 425 404 __________O___ -1 12.2000 129.500 3 7 271
1931309N12131 1931 53 WP MM NOT_NAMED 1931-11-06 00:00:00 NR 12.2076 129.283 main 404 373 __________P___ -1 12.2076 129.283 3 6 274
1931309N12131 1931 53 WP MM NOT_NAMED 1931-11-06 03:00:00 NR 12.2319 128.994 main 373 347 __________P___ -1 12.2319 128.994 3 5 276
1931309N12131 1931 53 WP MM NOT_NAMED 1931-11-06 06:00:00 NR 12.2634 128.734 main 347 326 __________P___ -1 12.2634 128.734 3 5 277
1931309N12131 1931 53 WP MM NOT_NAMED 1931-11-06 09:00:00 NR 12.2925 128.484 main 326 315 __________P___ -1 12.2925 128.484 3 5 276
1931309N12131 1931 53 WP MM NOT_NAMED 1931-11-06 10:00:00 NR 12.3000 128.400 main 315 293 __________O___ -1 12.3000 128.400 4 5 269
1931309N12131 1931 53 WP MM NOT_NAMED 1931-11-06 12:00:00 NR 12.2897 128.243 main 293 272 __________P___ -1 12.2897 128.243 4 5 265
1931309N12131 1931 53 WP MM NOT_NAMED 1931-11-06 15:00:00 NR 12.2676 128.007 main 272 239 __________P___ -1 12.2676 128.007 4 5 266
1931309N12131 1931 53 WP MM NOT_NAMED 1931-11-06 18:00:00 NR 12.2574 127.745 main 239 206 __________P___ -1 12.2574 127.745 4 6 271
1931309N12131 1931 53 WP MM NOT_NAMED 1931-11-06 21:00:00 NR 12.2809 127.425 main 206 196 __________P___ -1 12.2809 127.425 4 7 276
1931309N12131 1931 53 WP MM NOT_NAMED 1931-11-06 22:00:00 NR 12.3000 127.300 main 196 163 __________O___ -1 12.3000 127.300 4 9 279
1931309N12131 1931 53 WP MM NOT_NAMED 1931-11-07 00:00:00 NR 12.3478 126.991 main 163 110 __________P___ -1 12.3478 126.991 4 10 281
1931309N12131 1931 53 WP MM NOT_NAMED 1931-11-07 03:00:00 NR 12.4567 126.465 main 113 62 __________P___ -1 12.4567 126.465 4 11 284
1931309N12131 1931 53 WP MM NOT_NAMED 1931-11-07 06:00:00 NR 12.6128 125.907 main 62 39 __________P___ -1 12.6128 125.907 4 11 289
1931309N12131 1931 53 WP MM NOT_NAMED 1931-11-07 09:00:00 NR 12.8193 125.367 main 39 35 __________P___ -1 12.8193 125.367 4 11 293
1931309N12131 1931 53 WP MM NOT_NAMED 1931-11-07 10:00:00 NR 12.9000 125.200 main 44 44 __________O___ -1 12.9000 125.200 4 10 301
1931309N12131 1931 53 WP MM NOT_NAMED 1931-11-07 12:00:00 NR 13.0788 124.926 main 67 39 __________P___ -1 13.0788 124.926 4 10 308
1931309N12131 1931 53 WP MM NOT_NAMED 1931-11-07 15:00:00 NR 13.3916 124.553 main 39 0 __________P___ -1 13.3916 124.553 4 10 313
1931309N12131 1931 53 WP MM NOT_NAMED 1931-11-07 18:00:00 NR 13.7357 124.199 main 0 0 __________P___ -1 13.7357 124.199 4 10 315
1931309N12131 1931 53 WP MM NOT_NAMED 1931-11-07 21:00:00 NR 14.0861 123.831 main 24 24 __________P___ -1 14.0861 123.831 4 10 314
1931309N12131 1931 53 WP MM NOT_NAMED 1931-11-07 22:00:00 NR 14.2000 123.700 main 33 33 __________O___ -1 14.2000 123.700 4 10 309
1931309N12131 1931 53 WP MM NOT_NAMED 1931-11-08 00:00:00 NR 14.4108 123.414 main 46 46 __________P___ -1 14.4108 123.414 4 11 306
1931309N12131 1931 53 WP MM NOT_NAMED 1931-11-08 03:00:00 NR 14.7209 122.960 main 57 55 __________P___ -1 14.7209 122.960 4 11 304
1931309N12131 1931 53 WP MM NOT_NAMED 1931-11-08 06:00:00 NR 15.0209 122.478 main 89 58 __________P___ -1 15.0209 122.478 4 11 302
1931309N12131 1931 53 WP MM NOT_NAMED 1931-11-08 09:00:00 NR 15.3078 121.973 main 58 34 __________P___ -1 15.3078 121.973 4 11 300
1931309N12131 1931 53 WP MM NOT_NAMED 1931-11-08 10:00:00 NR 15.4000 121.800 main 34 0 __________O___ -1 15.4000 121.800 4 12 299
1931309N12131 1931 53 WP MM NOT_NAMED 1931-11-08 12:00:00 NR 15.5912 121.445 main 0 0 __________P___ -1 15.5912 121.445 4 12 298
1931309N12131 1931 53 WP MM NOT_NAMED 1931-11-08 15:00:00 NR 15.8657 120.894 main 0 0 __________P___ -1 15.8657 120.894 4 12 296
1931309N12131 1931 53 WP MM NOT_NAMED 1931-11-08 18:00:00 NR 16.1170 120.334 main 0 0 __________P___ -1 16.1170 120.334 4 12 294
1931309N12131 1931 53 WP MM NOT_NAMED 1931-11-08 21:00:00 NR 16.3359 119.780 main 0 10 __________P___ -1 16.3359 119.780 4 11 292
1931309N12131 1931 53 WP MM NOT_NAMED 1931-11-08 22:00:00 NR 16.4000 119.600 main 24 24 __________O___ -1 16.4000 119.600 4 11 289
1931309N12131 1931 53 WP MM NOT_NAMED 1931-11-09 00:00:00 NR 16.5088 119.260 main 57 67 __________P___ -1 16.5088 119.260 4 10 287
1931309N12131 1931 53 WP MM NOT_NAMED 1931-11-09 03:00:00 NR 16.6406 118.763 main 111 122 __________P___ -1 16.6406 118.763 4 10 284
1931309N12131 1931 53 WP MM NOT_NAMED 1931-11-09 06:00:00 NR 16.7518 118.271 main 169 179 __________P___ -1 16.7518 118.271 4 10 283
1931309N12131 1931 53 WP MM NOT_NAMED 1931-11-09 09:00:00 NR 16.8609 117.771 main 223 233 __________P___ -1 16.8609 117.771 4 10 283
1931309N12131 1931 53 WP MM NOT_NAMED 1931-11-09 10:00:00 NR 16.9000 117.600 main 243 243 __________O___ -1 16.9000 117.600 4 10 285
1931309N12131 1931 53 WP MM NOT_NAMED 1931-11-09 12:00:00 NR 16.9968 117.242 main 287 287 __________P___ -1 16.9968 117.242 4 11 286
1931309N12131 1931 53 WP MM NOT_NAMED 1931-11-09 15:00:00 NR 17.1484 116.693 main 342 345 __________P___ -1 17.1484 116.693 4 11 286
1931309N12131 1931 53 WP MM NOT_NAMED 1931-11-09 18:00:00 NR 17.3022 116.136 main 409 409 __________P___ -1 17.3022 116.136 4 11 286
1931309N12131 1931 53 WP MM NOT_NAMED 1931-11-09 21:00:00 NR 17.4520 115.582 main 466 466 __________P___ -1 17.4520 115.582 4 11 286
1931309N12131 1931 53 WP MM NOT_NAMED 1931-11-09 22:00:00 NR 17.5000 115.400 main 487 477 __________O___ -1 17.5000 115.400 4 11 285
1931309N12131 1931 53 WP MM NOT_NAMED 1931-11-10 00:00:00 NR 17.5860 115.044 main 477 425 __________P___ -1 17.5860 115.044 4 10 284
1931309N12131 1931 53 WP MM NOT_NAMED 1931-11-10 03:00:00 NR 17.7090 114.516 main 425 374 __________P___ -1 17.7090 114.516 4 10 284
1931309N12131 1931 53 WP MM NOT_NAMED 1931-11-10 06:00:00 NR 17.8303 113.994 main 374 318 __________P___ -1 17.8303 113.994 4 10 284
1931309N12131 1931 53 WP MM NOT_NAMED 1931-11-10 09:00:00 NR 17.9560 113.474 main 318 301 __________P___ -1 17.9560 113.474 4 10 284
1931309N12131 1931 53 WP MM NOT_NAMED 1931-11-10 10:00:00 NR 18.0000 113.300 main 301 269 __________O___ -1 18.0000 113.300 4 10 285
1931309N12131 1931 53 WP MM NOT_NAMED 1931-11-10 12:00:00 NR 18.0920 112.952 main 269 209 __________P___ -1 18.0920 112.952 4 10 286
1931309N12131 1931 53 WP MM NOT_NAMED 1931-11-10 15:00:00 NR 18.2383 112.428 main 209 152 __________P___ -1 18.2383 112.428 4 10 287
1931309N12131 1931 53 WP MM NOT_NAMED 1931-11-10 18:00:00 NR 18.3914 111.903 main 152 100 __________P___ -1 18.3914 111.903 4 10 287
1931309N12131 1931 53 WP MM NOT_NAMED 1931-11-10 21:00:00 NR 18.5478 111.376 main 100 77 __________P___ -1 18.5478 111.376 4 10 287
1931309N12131 1931 53 WP MM NOT_NAMED 1931-11-10 22:00:00 NR 18.6000 111.200 main 77 __________O___ -1 18.6000 111.200 4 10 287

Digital Typhoon Data and Search

About IBTrACS Database

This database is a web-friendly format of International Best Track Archive for Climate Stewardship (IBTrACS), a global best track data archive curated by NOAA dating back to 1842.

Updated: 2021-10-25